createdAt,value
2022-08-22T00:00:27.875Z,70.03
2022-08-22T00:02:42.056Z,50.41
2022-08-22T00:02:59.525Z,51.68
2022-08-22T00:03:03.384Z,54.86
2022-08-22T00:03:19.116Z,70.18
2022-08-22T00:06:11.663Z,70.22
2022-08-22T00:08:55.596Z,70.07
2022-08-22T00:12:03.642Z,70.29
2022-08-22T00:14:53.468Z,70.50
2022-08-22T00:17:38.993Z,70.62
2022-08-22T00:20:30.522Z,70.73
2022-08-22T00:23:18.517Z,70.67
2022-08-22T00:26:26.492Z,70.85
2022-08-22T00:29:31.747Z,70.93
2022-08-22T00:32:23.789Z,71.20
2022-08-22T00:35:20.803Z,71.37
2022-08-22T00:38:30.555Z,71.41
2022-08-22T00:41:16.591Z,71.52
2022-08-22T00:44:16.056Z,71.72
2022-08-22T00:47:25.990Z,71.62
2022-08-22T00:50:53.819Z,71.56
2022-08-22T00:54:00.763Z,71.84
2022-08-22T00:57:08.162Z,71.77
2022-08-22T01:00:05.708Z,71.97
2022-08-22T01:03:17.535Z,71.84
2022-08-22T01:06:24.124Z,71.46
2022-08-22T01:09:02.526Z,71.82
2022-08-22T01:11:52.560Z,71.63
2022-08-22T01:14:43.171Z,71.76
2022-08-22T01:17:37.709Z,71.94
2022-08-22T01:20:29.439Z,71.68
2022-08-22T01:23:46.648Z,71.68
2022-08-22T01:26:44.842Z,72.01
2022-08-22T01:29:36.628Z,72.37
2022-08-22T01:33:09.258Z,72.58
2022-08-22T01:35:56.567Z,72.70
2022-08-22T01:38:59.221Z,72.82
2022-08-22T01:41:47.160Z,73.11
2022-08-22T01:44:56.789Z,73.12
2022-08-22T01:47:36.567Z,72.97
2022-08-22T01:50:34.919Z,72.97
2022-08-22T01:53:18.860Z,73.04
2022-08-22T01:56:23.099Z,73.33
2022-08-22T01:59:14.999Z,73.44
2022-08-22T02:02:33.139Z,73.89
2022-08-22T02:05:26.110Z,73.96
2022-08-22T02:08:18.039Z,74.41
2022-08-22T02:11:11.019Z,74.59
2022-08-22T02:13:51.054Z,74.74
2022-08-22T02:16:41.283Z,74.71
2022-08-22T02:19:14.458Z,74.83
2022-08-22T02:21:58.856Z,74.85
2022-08-22T02:24:47.741Z,74.88
2022-08-22T02:27:46.614Z,74.79
2022-08-22T02:30:23.383Z,75.12
2022-08-22T02:33:21.300Z,75.27
2022-08-22T02:36:14.359Z,75.37
2022-08-22T02:38:56.443Z,75.78
2022-08-22T02:41:57.019Z,75.65
2022-08-22T02:44:36.596Z,75.59
2022-08-22T02:47:27.861Z,75.88
2022-08-22T02:50:34.483Z,75.73
2022-08-22T02:53:32.363Z,75.87
2022-08-22T02:56:22.308Z,75.77
2022-08-22T02:59:02.727Z,75.82
2022-08-22T03:01:33.252Z,75.90
2022-08-22T03:04:32.369Z,76.02
2022-08-22T03:07:11.625Z,76.15
2022-08-22T03:09:57.494Z,75.91
2022-08-22T03:12:57.724Z,76.41
2022-08-22T03:15:56.772Z,76.49
2022-08-22T03:18:44.791Z,76.63
2022-08-22T03:21:41.188Z,76.74
2022-08-22T03:24:17.147Z,76.67
2022-08-22T03:27:10.447Z,76.72
2022-08-22T03:29:46.617Z,76.73
2022-08-22T03:32:20.639Z,76.51
2022-08-22T03:35:05.167Z,76.66
2022-08-22T03:37:42.109Z,76.60
2022-08-22T03:41:01.133Z,76.53
2022-08-22T03:44:19.101Z,76.94
2022-08-22T03:47:16.819Z,76.83
2022-08-22T03:50:27.461Z,76.98
2022-08-22T03:53:19.201Z,76.98
2022-08-22T03:56:33.444Z,76.73
2022-08-22T03:59:25.564Z,76.70
2022-08-22T04:02:42.817Z,76.71
2022-08-22T04:05:40.491Z,77.00
2022-08-22T04:08:29.297Z,77.08
2022-08-22T04:11:24.480Z,77.32
2022-08-22T04:14:33.188Z,77.39
2022-08-22T04:17:41.775Z,77.47
2022-08-22T04:21:05.579Z,77.43
2022-08-22T04:24:10.954Z,77.45
2022-08-22T04:27:02.233Z,77.58
2022-08-22T04:29:53.142Z,77.82
2022-08-22T04:32:41.155Z,77.62
2022-08-22T04:35:25.760Z,77.62
2022-08-22T04:38:12.354Z,77.52
2022-08-22T04:40:48.289Z,77.74
2022-08-22T04:43:46.783Z,77.75
2022-08-22T04:46:33.720Z,77.72
2022-08-22T04:49:25.933Z,77.66
2022-08-22T04:52:40.247Z,77.88
2022-08-22T04:55:58.298Z,77.81
2022-08-22T04:59:11.793Z,77.74
2022-08-22T05:01:54.406Z,77.82
2022-08-22T05:04:35.733Z,77.83
2022-08-22T05:07:18.334Z,78.03
2022-08-22T05:10:09.391Z,77.99
2022-08-22T05:12:55.439Z,77.94
2022-08-22T05:15:35.902Z,77.58
2022-08-22T05:18:13.411Z,77.49
2022-08-22T05:20:47.468Z,77.76
2022-08-22T05:23:33.607Z,77.96
2022-08-22T05:26:06.363Z,77.78
2022-08-22T05:28:38.519Z,77.89
2022-08-22T05:31:15.982Z,77.77
2022-08-22T05:33:53.010Z,77.72
2022-08-22T05:36:26.556Z,77.91
2022-08-22T05:39:12.030Z,77.49
2022-08-22T05:41:41.527Z,77.05
2022-08-22T05:44:16.430Z,76.68
2022-08-22T05:46:52.973Z,76.27
2022-08-22T05:49:52.473Z,76.02
2022-08-22T05:52:54.803Z,75.92
2022-08-22T05:55:52.716Z,75.76
2022-08-22T05:58:38.743Z,75.64
2022-08-22T06:01:38.654Z,75.52
2022-08-22T06:04:21.754Z,75.26
2022-08-22T06:07:20.548Z,74.79
2022-08-22T06:09:47.649Z,74.43
2022-08-22T06:12:33.295Z,74.49
2022-08-22T06:15:23.735Z,74.14
2022-08-22T06:18:01.096Z,73.99
2022-08-22T06:20:36.571Z,73.79
2022-08-22T06:23:08.063Z,73.43
2022-08-22T06:25:40.513Z,73.56
2022-08-22T06:28:17.170Z,73.53
2022-08-22T06:30:47.744Z,73.53
2022-08-22T06:33:24.962Z,73.39
2022-08-22T06:36:25.814Z,73.87
2022-08-22T06:39:17.301Z,73.94
2022-08-22T06:42:11.205Z,73.92
2022-08-22T06:45:07.987Z,74.06
2022-08-22T06:47:50.992Z,73.70
2022-08-22T06:50:31.111Z,73.92
2022-08-22T06:53:08.227Z,73.61
2022-08-22T06:55:41.396Z,73.43
2022-08-22T06:58:32.821Z,72.68
2022-08-22T07:01:27.572Z,72.44
2022-08-22T07:04:03.197Z,71.99
2022-08-22T07:06:36.935Z,71.87
2022-08-22T07:09:06.990Z,71.98
2022-08-22T07:11:41.610Z,71.63
2022-08-22T07:14:14.563Z,71.30
2022-08-22T07:16:59.600Z,70.64
2022-08-22T07:19:36.905Z,70.29
2022-08-22T07:22:30.721Z,70.04
2022-08-22T07:25:16.515Z,69.91
2022-08-22T07:28:21.066Z,70.34
2022-08-22T07:31:26.004Z,70.09
2022-08-22T07:34:23.213Z,70.27
2022-08-22T07:37:03.180Z,69.89
2022-08-22T07:39:45.726Z,69.14
2022-08-22T07:42:30.100Z,68.94
2022-08-22T07:45:14.339Z,69.12
2022-08-22T07:48:25.591Z,69.36
2022-08-22T07:50:58.866Z,69.54
2022-08-22T07:53:48.530Z,69.27
2022-08-22T07:56:25.578Z,68.63
2022-08-22T07:59:12.973Z,67.88
2022-08-22T08:01:50.403Z,67.07
2022-08-22T08:04:24.757Z,67.28
2022-08-22T08:06:57.638Z,66.97
2022-08-22T08:09:30.934Z,66.58
2022-08-22T08:12:02.542Z,65.83
2022-08-22T08:14:32.553Z,64.97
2022-08-22T08:17:32.321Z,64.12
2022-08-22T08:20:09.007Z,64.04
2022-08-22T08:22:38.600Z,64.58
2022-08-22T08:25:08.178Z,64.31
2022-08-22T08:27:57.169Z,63.89
2022-08-22T08:30:44.270Z,63.43
2022-08-22T08:33:24.756Z,62.97
2022-08-22T08:36:05.327Z,63.24
2022-08-22T08:38:46.694Z,62.99
2022-08-22T08:41:47.743Z,62.04
2022-08-22T08:44:49.420Z,61.31
2022-08-22T08:47:52.387Z,60.76
2022-08-22T08:50:55.077Z,60.13
2022-08-22T08:54:09.345Z,60.71
2022-08-22T08:56:42.779Z,60.71
2022-08-22T09:00:06.617Z,60.88
2022-08-22T09:02:57.469Z,61.01
2022-08-22T09:06:05.758Z,61.66
2022-08-22T09:09:07.404Z,61.90
2022-08-22T09:12:07.132Z,61.71
2022-08-22T09:14:49.671Z,60.72
2022-08-22T09:17:38.620Z,60.76
2022-08-22T09:20:52.268Z,60.33
2022-08-22T09:23:49.216Z,60.25
2022-08-22T09:27:10.740Z,59.98
2022-08-22T09:29:57.112Z,59.32
2022-08-22T09:32:45.499Z,57.96
2022-08-22T09:35:46.389Z,57.15
2022-08-22T09:38:23.399Z,56.60
2022-08-22T09:41:44.364Z,56.55
2022-08-22T09:44:39.799Z,55.95
2022-08-22T09:47:32.627Z,55.50
2022-08-22T09:50:30.767Z,55.10
2022-08-22T09:53:21.393Z,54.06
2022-08-22T09:56:26.030Z,54.50
2022-08-22T09:59:18.449Z,53.56
2022-08-22T10:01:50.574Z,54.27
2022-08-22T10:04:58.198Z,53.87
2022-08-22T10:07:58.653Z,50.08
2022-08-22T10:10:54.713Z,49.35
2022-08-22T10:14:01.402Z,50.60
2022-08-22T10:17:08.417Z,49.46
2022-08-22T10:19:47.069Z,46.76
2022-08-22T10:22:34.896Z,46.57
2022-08-22T10:25:34.500Z,45.97
2022-08-22T10:28:16.459Z,45.33
2022-08-22T10:31:45.033Z,45.61
2022-08-22T10:34:45.623Z,44.99
2022-08-22T10:37:32.668Z,43.24
2022-08-22T10:40:46.458Z,43.19
2022-08-22T10:44:01.493Z,43.46
2022-08-22T10:46:52.664Z,43.67
2022-08-22T10:49:33.653Z,43.99
2022-08-22T10:52:15.788Z,40.98
2022-08-22T10:55:13.431Z,40.81
2022-08-22T10:58:22.638Z,40.32
2022-08-22T11:01:00.375Z,39.94
2022-08-22T11:04:28.199Z,39.20
2022-08-22T11:07:29.551Z,40.23
2022-08-22T11:10:15.654Z,40.22
2022-08-22T11:13:05.656Z,39.55
2022-08-22T11:16:04.137Z,38.86
2022-08-22T11:19:03.038Z,39.62
2022-08-22T11:22:38.954Z,39.37
2022-08-22T11:25:35.783Z,39.91
2022-08-22T11:28:31.143Z,39.35
2022-08-22T11:31:47.133Z,38.19
2022-08-22T11:34:42.169Z,38.11
2022-08-22T11:37:51.275Z,37.92
2022-08-22T11:40:57.758Z,37.47
2022-08-22T11:44:05.647Z,37.32
2022-08-22T11:46:43.374Z,36.96
2022-08-22T11:49:47.032Z,37.13
2022-08-22T11:52:37.653Z,35.82
2022-08-22T11:55:36.881Z,36.12
2022-08-22T11:58:22.755Z,34.70
2022-08-22T12:01:14.773Z,36.15
2022-08-22T12:04:15.852Z,35.04
2022-08-22T12:06:54.561Z,34.86
2022-08-22T12:09:42.591Z,35.86
2022-08-22T12:13:01.242Z,35.21
2022-08-22T12:16:03.882Z,34.50
2022-08-22T12:18:52.924Z,35.11
2022-08-22T12:21:40.869Z,34.08
2022-08-22T12:24:51.282Z,34.31
2022-08-22T12:27:28.921Z,33.93
2022-08-22T12:30:14.999Z,33.38
2022-08-22T12:33:13.123Z,32.99
2022-08-22T12:36:30.275Z,33.03
2022-08-22T12:39:16.486Z,33.90
2022-08-22T12:42:26.201Z,34.16
2022-08-22T12:45:33.533Z,34.58
2022-08-22T12:48:22.211Z,35.02
2022-08-22T12:51:24.501Z,35.55
2022-08-22T12:54:23.587Z,34.10
2022-08-22T12:57:24.479Z,34.13
2022-08-22T13:00:03.163Z,33.86
2022-08-22T13:02:39.502Z,34.71
2022-08-22T13:05:20.019Z,33.52
2022-08-22T13:08:04.381Z,33.90
2022-08-22T13:11:01.994Z,34.05
2022-08-22T13:13:36.921Z,34.50
2022-08-22T13:16:11.576Z,34.37
2022-08-22T13:19:07.537Z,33.11
2022-08-22T13:21:45.059Z,33.71
2022-08-22T13:25:15.802Z,32.79
2022-08-22T13:28:01.166Z,31.75
2022-08-22T13:30:37.399Z,31.30
2022-08-22T13:33:14.476Z,30.52
2022-08-22T13:35:55.689Z,30.56
2022-08-22T13:38:30.036Z,31.17
2022-08-22T13:41:01.987Z,30.84
2022-08-22T13:43:52.371Z,30.57
2022-08-22T13:46:28.185Z,31.33
2022-08-22T13:49:01.204Z,31.52
2022-08-22T13:51:45.794Z,32.07
2022-08-22T13:54:16.410Z,31.84
2022-08-22T13:57:00.585Z,31.50
2022-08-22T13:59:53.739Z,32.06
2022-08-22T14:02:58.836Z,32.36
2022-08-22T14:05:33.771Z,32.58
2022-08-22T14:08:21.278Z,32.59
2022-08-22T14:11:10.468Z,32.40
2022-08-22T14:13:52.814Z,32.39
2022-08-22T14:16:27.115Z,32.85
2022-08-22T14:19:14.433Z,32.58
2022-08-22T14:21:59.568Z,32.51
2022-08-22T14:24:45.862Z,32.83
2022-08-22T14:27:26.930Z,32.77
2022-08-22T14:30:20.303Z,33.30
2022-08-22T14:32:56.904Z,32.89
2022-08-22T14:35:40.635Z,33.25
2022-08-22T14:38:38.269Z,32.89
2022-08-22T14:41:15.882Z,33.13
2022-08-22T14:44:20.112Z,32.61
2022-08-22T14:46:59.236Z,32.45
2022-08-22T14:49:59.219Z,32.37
2022-08-22T14:52:44.922Z,32.22
2022-08-22T14:55:21.198Z,32.79
2022-08-22T14:58:15.214Z,32.64
2022-08-22T15:00:48.046Z,32.47
2022-08-22T15:03:20.070Z,32.18
2022-08-22T15:06:02.485Z,32.10
2022-08-22T15:08:34.494Z,31.02
2022-08-22T15:11:10.864Z,30.32
2022-08-22T15:13:49.122Z,29.51
2022-08-22T15:16:23.250Z,29.59
2022-08-22T15:18:52.560Z,29.64
2022-08-22T15:21:31.382Z,29.91
2022-08-22T15:24:09.755Z,29.50
2022-08-22T15:26:50.192Z,30.00
2022-08-22T15:29:26.556Z,30.34
2022-08-22T15:32:00.995Z,30.42
2022-08-22T15:34:45.867Z,30.84
2022-08-22T15:37:19.107Z,31.04
2022-08-22T15:40:30.753Z,30.70
2022-08-22T15:43:13.119Z,31.08
2022-08-22T15:45:43.446Z,31.17
2022-08-22T15:48:33.630Z,31.46
2022-08-22T15:51:13.471Z,31.90
2022-08-22T15:53:43.529Z,31.92
2022-08-22T15:56:22.914Z,32.15
2022-08-22T15:59:48.148Z,31.23
2022-08-22T16:02:39.864Z,31.67
2022-08-22T16:05:10.339Z,32.30
2022-08-22T16:07:47.607Z,32.50
2022-08-22T16:10:20.484Z,32.27
2022-08-22T16:13:34.090Z,31.78
2022-08-22T16:16:26.046Z,31.99
2022-08-22T16:18:53.097Z,32.37
2022-08-22T16:21:22.870Z,32.52
2022-08-22T16:23:49.938Z,32.93
2022-08-22T16:26:30.726Z,32.55
2022-08-22T16:29:29.843Z,33.33
2022-08-22T16:32:10.930Z,33.93
2022-08-22T16:34:37.859Z,33.37
2022-08-22T16:37:21.494Z,34.15
2022-08-22T16:39:58.894Z,34.01
2022-08-22T16:42:46.350Z,33.20
2022-08-22T16:45:30.001Z,33.51
2022-08-22T16:48:02.315Z,33.72
2022-08-22T16:50:40.830Z,33.41
2022-08-22T16:53:10.002Z,32.93
2022-08-22T16:55:47.928Z,32.29
2022-08-22T16:58:56.523Z,31.87
2022-08-22T17:01:48.250Z,31.99
2022-08-22T17:04:49.281Z,30.58
2022-08-22T17:07:42.563Z,29.52
2022-08-22T17:10:38.452Z,29.60
2022-08-22T17:13:41.334Z,29.74
2022-08-22T17:16:48.789Z,28.94
2022-08-22T17:19:35.521Z,29.04
2022-08-22T17:22:12.614Z,29.39
2022-08-22T17:24:54.893Z,29.27
2022-08-22T17:27:42.632Z,29.46
2022-08-22T17:30:39.498Z,29.74
2022-08-22T17:33:28.670Z,29.90
2022-08-22T17:36:27.562Z,30.00
2022-08-22T17:39:08.034Z,30.63
2022-08-22T17:42:10.225Z,31.08
2022-08-22T17:45:15.378Z,31.25
2022-08-22T17:48:22.460Z,31.48
2022-08-22T17:51:02.523Z,32.16
2022-08-22T17:53:41.414Z,32.02
2022-08-22T17:56:32.740Z,32.67
2022-08-22T17:59:06.720Z,32.65
2022-08-22T18:01:50.128Z,33.21
2022-08-22T18:04:31.224Z,33.42
2022-08-22T18:07:10.479Z,34.02
2022-08-22T18:09:49.154Z,34.27
2022-08-22T18:13:01.315Z,34.77
2022-08-22T18:16:01.062Z,35.11
2022-08-22T18:18:50.300Z,35.57
2022-08-22T18:21:42.064Z,36.05
2022-08-22T18:24:12.333Z,36.45
2022-08-22T18:26:58.417Z,36.80
2022-08-22T18:29:42.781Z,37.65
2022-08-22T18:32:25.515Z,38.24
2022-08-22T18:35:03.785Z,38.20
2022-08-22T18:37:30.816Z,39.00
2022-08-22T18:40:27.443Z,39.84
2022-08-22T18:43:23.927Z,40.53
2022-08-22T18:45:51.027Z,40.82
2022-08-22T18:48:59.245Z,41.18
2022-08-22T18:51:38.251Z,41.64
2022-08-22T18:54:06.819Z,41.68
2022-08-22T18:56:55.719Z,42.28
2022-08-22T18:59:54.288Z,42.29
2022-08-22T19:03:03.608Z,42.39
2022-08-22T19:06:01.024Z,43.54
2022-08-22T19:08:37.114Z,43.85
2022-08-22T19:11:35.084Z,43.94
2022-08-22T19:14:25.204Z,43.99
2022-08-22T19:17:15.038Z,44.47
2022-08-22T19:20:12.675Z,44.46
2022-08-22T19:22:40.736Z,44.72
2022-08-22T19:25:10.791Z,44.58
2022-08-22T19:27:59.365Z,44.95
2022-08-22T19:30:47.426Z,45.04
2022-08-22T19:33:39.548Z,45.21
2022-08-22T19:36:30.697Z,45.26
2022-08-22T19:39:02.292Z,45.41
2022-08-22T19:41:52.338Z,45.45
2022-08-22T19:44:19.367Z,45.57
2022-08-22T19:47:18.022Z,45.88
2022-08-22T19:50:01.476Z,46.19
2022-08-22T19:53:03.196Z,46.08
2022-08-22T19:55:37.269Z,46.30
2022-08-22T19:58:32.849Z,46.07
2022-08-22T20:01:28.154Z,46.26
2022-08-22T20:04:10.106Z,46.44
2022-08-22T20:07:00.411Z,46.62
2022-08-22T20:09:45.427Z,46.69
2022-08-22T20:12:34.883Z,46.79
2022-08-22T20:15:25.859Z,47.06
2022-08-22T20:21:00.121Z,47.07
2022-08-22T20:23:32.530Z,47.32
2022-08-22T20:26:00.760Z,47.32
2022-08-22T20:28:49.763Z,47.41
2022-08-22T20:31:37.372Z,47.72
2022-08-22T20:34:15.865Z,47.66
2022-08-22T20:36:55.967Z,47.47
2022-08-22T20:39:58.697Z,48.20
2022-08-22T20:42:33.802Z,48.16
2022-08-22T20:45:11.133Z,48.09
2022-08-22T20:47:40.863Z,48.34
2022-08-22T20:50:12.006Z,48.46
2022-08-22T20:52:51.828Z,48.45
2022-08-22T20:55:31.611Z,49.03
2022-08-22T20:58:06.180Z,48.77
2022-08-22T21:00:42.092Z,48.91
2022-08-22T21:03:24.474Z,49.27
2022-08-22T21:05:51.776Z,49.04
2022-08-22T21:08:24.715Z,49.76
2022-08-22T21:11:23.372Z,49.57
2022-08-22T21:13:51.975Z,49.70
2022-08-22T21:16:33.348Z,49.60
2022-08-22T21:19:04.187Z,49.82
2022-08-22T21:21:35.371Z,49.80
2022-08-22T21:24:07.280Z,50.14
2022-08-22T21:26:46.256Z,50.32
2022-08-22T21:29:13.228Z,50.43
2022-08-22T21:31:52.658Z,50.46
2022-08-22T21:34:30.655Z,50.27
2022-08-22T21:37:22.279Z,50.76
2022-08-22T21:40:19.087Z,50.70
2022-08-22T21:43:05.176Z,50.61
2022-08-22T21:45:44.695Z,50.77
2022-08-22T21:48:39.392Z,50.93
2022-08-22T21:51:45.637Z,51.24
2022-08-22T21:54:24.723Z,51.19
2022-08-22T21:57:09.999Z,51.41
2022-08-22T21:59:51.683Z,51.85
2022-08-22T22:02:40.692Z,51.90
2022-08-22T22:05:17.989Z,51.81
2022-08-22T22:07:47.296Z,52.06
2022-08-22T22:10:19.052Z,52.18
2022-08-22T22:12:49.327Z,52.35
2022-08-22T22:15:22.760Z,52.34
2022-08-22T22:17:50.368Z,52.73
2022-08-22T22:20:21.827Z,52.97
2022-08-22T22:22:50.822Z,53.01
2022-08-22T22:25:39.954Z,53.30
2022-08-22T22:28:15.346Z,53.64
2022-08-22T22:30:44.496Z,53.77
2022-08-22T22:33:12.020Z,54.13
2022-08-22T22:35:40.820Z,54.44
2022-08-22T22:38:11.503Z,54.38
2022-08-22T22:40:38.803Z,54.50
2022-08-22T22:43:05.936Z,54.83
2022-08-22T22:45:33.367Z,55.16
2022-08-22T22:48:01.623Z,55.22
2022-08-22T22:50:28.867Z,55.33
2022-08-22T22:52:55.976Z,55.44
2022-08-22T22:55:24.638Z,55.72
2022-08-22T22:57:58.461Z,56.00
2022-08-22T23:00:29.129Z,55.71
2022-08-22T23:03:01.172Z,56.24
2022-08-22T23:05:33.137Z,56.32
2022-08-22T23:08:00.952Z,56.71
2022-08-22T23:10:31.747Z,56.91
2022-08-22T23:12:59.433Z,57.25
2022-08-22T23:15:27.708Z,57.38
2022-08-22T23:17:55.112Z,57.59
2022-08-22T23:20:22.620Z,57.47
2022-08-22T23:22:50.234Z,57.51
2022-08-22T23:25:17.434Z,57.77
2022-08-22T23:27:44.575Z,57.98
2022-08-22T23:30:15.986Z,58.36
2022-08-22T23:32:43.139Z,58.36
2022-08-22T23:35:10.157Z,58.55
2022-08-22T23:37:38.300Z,58.82
2022-08-22T23:40:08.461Z,59.05
2022-08-22T23:42:35.629Z,59.29
2022-08-22T23:45:03.386Z,59.61
2022-08-22T23:47:30.532Z,59.79
2022-08-22T23:49:57.588Z,59.87
2022-08-22T23:52:25.224Z,60.24
2022-08-22T23:54:55.686Z,60.37
2022-08-22T23:57:27.425Z,60.43
2022-08-22T23:59:58.440Z,60.70
